Friday, April 29, 2016
04:02 UTC
  |  Log In   |  Register Free
Airport Search:

Talladega Municipal Airport
(KASN)

Talladega Municipal Airport Diagram
No Airport Diagram Available

FAA data valid effective Mar 31 2016 - May 26 2016 (unless otherwise noted).

 
 
 
 
 
 
 
 
 
 
 
 
 
 
Current Aviation Weather for KASN

Weather Summary


The most recent METAR observation for ASN was updated at: 12:53 UTC
METAR for KASN is not available. Closest METAR is for KANB
KASN  (most recent observation was updatred at 29:03 UTC)
290355Z AUTO 00000KT 10SM CLR A2999 RMK AO2

KANB  (9.7 nm SW)   (most recent observation was updated at 29:03 UTC)
290353Z AUTO 00000KT 10SM CLR 18/16 A2998 RMK AO2 SLP147 T01830161

KGAD  (24.3 nm SE)   (most recent observation was updated at 29:03 UTC)
290356Z AUTO 00000KT 10SM CLR 17/16 A2998 RMK AO2 SLP167 T01720156

TAF for KASN is not available.
KASN
282340Z 2900/2924 23005KT P6SM SCT060 FM290200 04004KT P6SM SKC FM291100 11004KT P6SM SKC

KANB  (9.7 nm SW)   (most recent observation was updatred at 28:23 UTC)
282340Z 2900/2924 24005KT P6SM SCT060 FM290200 04004KT P6SM SKC FM291100 11004KT P6SM SKC


KBHM  (35.1 nm NE)   (most recent observation was updatred at 28:23 UTC)
282340Z 2900/2924 25007KT P6SM FEW060 FM290200 00000KT P6SM SKC
GlobalAir.com is loading additional information.
 Current Weather at ASN


Northeast winds at 3.5 mph
Pressure:
29.99 in
Humidity:
%
Wind:
Northeast at 3.5 mph
Dew Point:
Visibility:
10.00 mi
ASN NOAA Radar




Find All Airport Services Find A Hotel Find A Rental Car Find A Golf Course Find A Restaurant $100 Hamburger



Airport Weather Forecast for KASN

Translated METAR for KASN (0353 UTC)
METAR:
KANB 290353Z AUTO 00000KT 10SM CLR 18/16 A2998 RMK AO2 SLP147 T01830161

KANB 290253Z AUTO 00000KT 10SM CLR 19/16 A2998 RMK AO2 SLP147 T01890161 51013

KANB 290153Z AUTO 00000KT 10SM CLR 21/17 A2997 RMK AO2 SLP144 T02060167

KASN 290355Z AUTO 00000KT 10SM CLR A2999 RMK AO2

TAF KANB 282340Z 2900/2924 24005KT P6SM SCT060 FM290200 04004KT P6SM SKC FM291100 11004KT P6SM SKC

TAF KASN 282340Z 2900/2924 23005KT P6SM SCT060 FM290200 04004KT P6SM SKC FM291100 11004KT P6SM SKC

Conditions at:
KANB (Anniston Rgnl, AL) observed 0353 UTC 29 April 2016
Temperature:
18°C (64.4°F)
Dewpoint:
16°C (60.8°F) [RH = 88.1]
Pressure:
29.98 inches Hg (1015.2 mb)
pressure at sea level is 147 in Hg
pressure at sea level is 147 in Hg
pressure at sea level is 144 in Hg
Winds:
from the N (000 degrees) at 0 mph (0 knots: 0 m/s)
Visibility:
P6 mile(s)
Ceiling:
at least 12,000 feet AGL
Clouds:
Clear below 12,000 feet AGL
Remarks:
site is un-manned
site is automated and HAS a precipitation sensor

Translated TAF for KASN (Talladega Muni, AL) (2340 UTC)
TAF text:
KASN 282340Z 2900/2924 23005KT P6SM SCT060
Forecast period:
Friday Apr 29 2016 00:00 UTC - Friday Apr 29 2016 24:00 UTC
Forecast type:
FROM: standard forecast or significant change
Winds:
from the SW (230 degrees) at 5.8 mph (5 knots: 2.6 m/s)
Visibility:
6 or more mile(s) (9.7+ km)
Ceiling:
at least 12,000 feet AGL
Clouds:
Scattered Clouds at 6,000 feet AGL
Weather:
no significant weather observed at this time
TAF text:
FM290200 04004KT P6SM SKC
Forecast period:
Friday Apr 29 2016 02:00 UTC - Friday Apr 29 2016 11:00 UTC
Forecast type:
FROM: standard forecast or significant change
Winds:
from the NE (040 degrees) at 4.6 mph (4 knots: 2.1 m/s)
Visibility:
6 or more mile(s) (9.7+ km)
Ceiling:
at least 12,000 feet AGL
Clouds:
Clear Skies
Weather:
no significant weather observed at this time
TAF text:
FM291100 11004KT P6SM SKC
Forecast period:
Friday Apr 29 2016 11:00 UTC - Friday Apr 29 2016 24:00 UTC
Forecast type:
FROM: standard forecast or significant change
Winds:
from the ESE (110 degrees) at 4.6 mph (4 knots: 2.1 m/s)
Visibility:
6 or more mile(s) (9.7+ km)
Ceiling:
at least 12,000 feet AGL
Clouds:
Clear Skies
Weather:
no significant weather observed at this time
FBO's on the Field
FBO Company Facility Photos Services Transportation Aviation Fuel Prices: Prices include tax
Catering Weather Repair Courtesy Rental Type 100LL JetA JetA+ MOGAS 8087
 
Talladega Municipal

This FBO has not yet been rated
FS:Phillips 66
Last Updated: Apr-11
Login to update fuel prices
SS:
Contact Talladega MunicipalMore FBO Information
 
Add another FBO Facility Photos Catering Weather Repair Courtesy Rental Type 100LL JetA JetA+ MOGAS 8087
Services Transportation Aviation Fuel Prices: Prices include tax


model-print
model-print
model-print
model-print